sensor_id;sensor_type;location;lat;lon;timestamp;temperature;humidity
19085;DHT22;9675;51.538;6.728;2024-03-07T00:01:04;8.20;99.90
19085;DHT22;9675;51.538;6.728;2024-03-07T00:03:33;8.20;99.90
19085;DHT22;9675;51.538;6.728;2024-03-07T00:06:01;8.20;99.90
19085;DHT22;9675;51.538;6.728;2024-03-07T00:08:28;8.20;99.90
19085;DHT22;9675;51.538;6.728;2024-03-07T00:10:56;8.20;99.90
19085;DHT22;9675;51.538;6.728;2024-03-07T00:13:23;8.10;99.90
19085;DHT22;9675;51.538;6.728;2024-03-07T00:15:50;8.10;99.90
19085;DHT22;9675;51.538;6.728;2024-03-07T00:18:17;8.10;99.90
19085;DHT22;9675;51.538;6.728;2024-03-07T00:20:44;8.10;99.90
19085;DHT22;9675;51.538;6.728;2024-03-07T00:23:12;8.10;99.90
19085;DHT22;9675;51.538;6.728;2024-03-07T00:25:39;8.10;99.90
19085;DHT22;9675;51.538;6.728;2024-03-07T00:28:06;8.00;99.90
19085;DHT22;9675;51.538;6.728;2024-03-07T00:30:33;8.00;99.90
19085;DHT22;9675;51.538;6.728;2024-03-07T00:33:00;8.00;99.90
19085;DHT22;9675;51.538;6.728;2024-03-07T00:35:27;8.00;99.90
19085;DHT22;9675;51.538;6.728;2024-03-07T00:37:55;7.90;99.90
19085;DHT22;9675;51.538;6.728;2024-03-07T00:40:24;7.90;99.90
19085;DHT22;9675;51.538;6.728;2024-03-07T00:42:51;7.80;99.90
19085;DHT22;9675;51.538;6.728;2024-03-07T00:45:18;7.80;99.90
19085;DHT22;9675;51.538;6.728;2024-03-07T00:47:45;7.80;99.90
19085;DHT22;9675;51.538;6.728;2024-03-07T00:50:14;7.80;99.90
19085;DHT22;9675;51.538;6.728;2024-03-07T00:52:41;7.80;99.90
19085;DHT22;9675;51.538;6.728;2024-03-07T00:55:08;7.70;99.90
19085;DHT22;9675;51.538;6.728;2024-03-07T00:57:37;7.70;99.90
19085;DHT22;9675;51.538;6.728;2024-03-07T01:00:05;7.70;99.90
19085;DHT22;9675;51.538;6.728;2024-03-07T01:02:37;7.70;99.90
19085;DHT22;9675;51.538;6.728;2024-03-07T01:05:05;7.60;99.90
19085;DHT22;9675;51.538;6.728;2024-03-07T01:07:35;7.70;99.90
19085;DHT22;9675;51.538;6.728;2024-03-07T01:10:03;7.70;99.90
19085;DHT22;9675;51.538;6.728;2024-03-07T01:12:31;7.60;99.90
19085;DHT22;9675;51.538;6.728;2024-03-07T01:15:01;7.60;99.90
19085;DHT22;9675;51.538;6.728;2024-03-07T01:17:29;7.60;99.90
19085;DHT22;9675;51.538;6.728;2024-03-07T01:19:56;7.60;99.90
19085;DHT22;9675;51.538;6.728;2024-03-07T01:22:24;7.50;99.90
19085;DHT22;9675;51.538;6.728;2024-03-07T01:24:51;7.50;99.90
19085;DHT22;9675;51.538;6.728;2024-03-07T01:27:18;7.50;99.90
19085;DHT22;9675;51.538;6.728;2024-03-07T01:29:45;7.50;99.90
19085;DHT22;9675;51.538;6.728;2024-03-07T01:32:13;7.50;99.90
19085;DHT22;9675;51.538;6.728;2024-03-07T01:34:40;7.40;99.90
19085;DHT22;9675;51.538;6.728;2024-03-07T01:37:07;7.40;99.90
19085;DHT22;9675;51.538;6.728;2024-03-07T01:39:34;7.40;99.90
19085;DHT22;9675;51.538;6.728;2024-03-07T01:42:01;7.40;99.90
19085;DHT22;9675;51.538;6.728;2024-03-07T01:44:28;7.40;99.90
19085;DHT22;9675;51.538;6.728;2024-03-07T01:46:57;7.40;99.90
19085;DHT22;9675;51.538;6.728;2024-03-07T01:49:27;7.40;99.90
19085;DHT22;9675;51.538;6.728;2024-03-07T01:51:54;7.40;99.90
19085;DHT22;9675;51.538;6.728;2024-03-07T01:54:21;7.40;99.90
19085;DHT22;9675;51.538;6.728;2024-03-07T01:56:48;7.30;99.90
19085;DHT22;9675;51.538;6.728;2024-03-07T01:59:15;7.40;99.90
19085;DHT22;9675;51.538;6.728;2024-03-07T02:01:44;7.40;99.90
19085;DHT22;9675;51.538;6.728;2024-03-07T02:04:12;7.30;99.90
19085;DHT22;9675;51.538;6.728;2024-03-07T02:06:41;7.30;99.90
19085;DHT22;9675;51.538;6.728;2024-03-07T02:09:09;7.30;99.90
19085;DHT22;9675;51.538;6.728;2024-03-07T02:11:36;7.30;99.90
19085;DHT22;9675;51.538;6.728;2024-03-07T02:14:03;7.30;99.90
19085;DHT22;9675;51.538;6.728;2024-03-07T02:16:30;7.20;99.90
19085;DHT22;9675;51.538;6.728;2024-03-07T02:18:58;7.20;99.90
19085;DHT22;9675;51.538;6.728;2024-03-07T02:21:27;7.20;99.90
19085;DHT22;9675;51.538;6.728;2024-03-07T02:23:54;7.20;99.90
19085;DHT22;9675;51.538;6.728;2024-03-07T02:26:21;7.20;99.90
19085;DHT22;9675;51.538;6.728;2024-03-07T02:28:48;7.20;99.90
19085;DHT22;9675;51.538;6.728;2024-03-07T02:31:16;7.20;99.90
19085;DHT22;9675;51.538;6.728;2024-03-07T02:33:45;7.20;99.90
19085;DHT22;9675;51.538;6.728;2024-03-07T02:36:12;7.10;99.90
19085;DHT22;9675;51.538;6.728;2024-03-07T02:38:40;7.10;99.90
19085;DHT22;9675;51.538;6.728;2024-03-07T02:41:08;7.10;99.90
19085;DHT22;9675;51.538;6.728;2024-03-07T02:43:34;7.10;99.90
19085;DHT22;9675;51.538;6.728;2024-03-07T02:46:03;7.10;99.90
19085;DHT22;9675;51.538;6.728;2024-03-07T02:48:31;7.00;99.90
19085;DHT22;9675;51.538;6.728;2024-03-07T02:50:58;7.00;99.90
19085;DHT22;9675;51.538;6.728;2024-03-07T02:53:25;7.00;99.90
19085;DHT22;9675;51.538;6.728;2024-03-07T02:55:53;7.00;99.90
19085;DHT22;9675;51.538;6.728;2024-03-07T02:58:21;7.00;99.90
19085;DHT22;9675;51.538;6.728;2024-03-07T03:00:48;6.90;99.90
19085;DHT22;9675;51.538;6.728;2024-03-07T03:03:15;6.90;99.90
19085;DHT22;9675;51.538;6.728;2024-03-07T03:05:42;6.90;99.90
19085;DHT22;9675;51.538;6.728;2024-03-07T03:08:10;6.90;99.90
19085;DHT22;9675;51.538;6.728;2024-03-07T03:10:39;6.90;99.90
19085;DHT22;9675;51.538;6.728;2024-03-07T03:13:08;6.90;99.90
19085;DHT22;9675;51.538;6.728;2024-03-07T03:15:35;6.90;99.90
19085;DHT22;9675;51.538;6.728;2024-03-07T03:18:03;6.90;99.90
19085;DHT22;9675;51.538;6.728;2024-03-07T03:20:31;6.90;99.90
19085;DHT22;9675;51.538;6.728;2024-03-07T03:23:00;6.90;99.90
19085;DHT22;9675;51.538;6.728;2024-03-07T03:25:28;6.80;99.90
19085;DHT22;9675;51.538;6.728;2024-03-07T03:27:55;6.80;99.90
19085;DHT22;9675;51.538;6.728;2024-03-07T03:30:24;6.80;99.90
19085;DHT22;9675;51.538;6.728;2024-03-07T03:32:52;6.80;99.90
19085;DHT22;9675;51.538;6.728;2024-03-07T03:35:19;6.80;99.90
19085;DHT22;9675;51.538;6.728;2024-03-07T03:37:46;6.70;99.90
19085;DHT22;9675;51.538;6.728;2024-03-07T03:40:13;6.70;99.90
19085;DHT22;9675;51.538;6.728;2024-03-07T03:42:41;6.70;99.90
19085;DHT22;9675;51.538;6.728;2024-03-07T03:45:10;6.70;99.90
19085;DHT22;9675;51.538;6.728;2024-03-07T03:47:43;6.70;99.90
19085;DHT22;9675;51.538;6.728;2024-03-07T03:50:12;6.60;99.90
19085;DHT22;9675;51.538;6.728;2024-03-07T03:52:40;6.60;99.90
19085;DHT22;9675;51.538;6.728;2024-03-07T03:55:08;6.60;99.90
19085;DHT22;9675;51.538;6.728;2024-03-07T03:57:38;6.60;99.90
19085;DHT22;9675;51.538;6.728;2024-03-07T04:00:08;6.60;99.90
19085;DHT22;9675;51.538;6.728;2024-03-07T04:02:39;6.60;99.90
19085;DHT22;9675;51.538;6.728;2024-03-07T04:05:09;6.50;99.90
19085;DHT22;9675;51.538;6.728;2024-03-07T04:07:38;6.50;99.90
19085;DHT22;9675;51.538;6.728;2024-03-07T04:10:07;6.50;99.90
19085;DHT22;9675;51.538;6.728;2024-03-07T04:12:36;6.50;99.90
19085;DHT22;9675;51.538;6.728;2024-03-07T04:15:07;6.50;99.90
19085;DHT22;9675;51.538;6.728;2024-03-07T04:17:35;6.50;99.90
19085;DHT22;9675;51.538;6.728;2024-03-07T04:20:05;6.50;99.90
19085;DHT22;9675;51.538;6.728;2024-03-07T04:22:33;6.40;99.90
19085;DHT22;9675;51.538;6.728;2024-03-07T04:25:01;6.40;99.90
19085;DHT22;9675;51.538;6.728;2024-03-07T04:27:29;6.40;99.90
19085;DHT22;9675;51.538;6.728;2024-03-07T04:29:56;6.40;99.90
19085;DHT22;9675;51.538;6.728;2024-03-07T04:32:23;6.40;99.90
19085;DHT22;9675;51.538;6.728;2024-03-07T04:34:50;6.30;99.90
19085;DHT22;9675;51.538;6.728;2024-03-07T04:37:19;6.40;99.90
19085;DHT22;9675;51.538;6.728;2024-03-07T04:39:47;6.40;99.90
19085;DHT22;9675;51.538;6.728;2024-03-07T04:42:14;6.40;99.90
19085;DHT22;9675;51.538;6.728;2024-03-07T04:44:41;6.30;99.90
19085;DHT22;9675;51.538;6.728;2024-03-07T04:47:09;6.30;99.90
19085;DHT22;9675;51.538;6.728;2024-03-07T04:49:36;6.20;99.90
19085;DHT22;9675;51.538;6.728;2024-03-07T04:52:03;6.20;99.90
19085;DHT22;9675;51.538;6.728;2024-03-07T04:54:32;6.20;99.90
19085;DHT22;9675;51.538;6.728;2024-03-07T04:57:00;6.20;99.90
19085;DHT22;9675;51.538;6.728;2024-03-07T04:59:27;6.20;99.90
19085;DHT22;9675;51.538;6.728;2024-03-07T05:01:55;6.20;99.90
19085;DHT22;9675;51.538;6.728;2024-03-07T05:04:22;6.20;99.90
19085;DHT22;9675;51.538;6.728;2024-03-07T05:06:54;6.10;99.90
19085;DHT22;9675;51.538;6.728;2024-03-07T05:09:23;6.10;99.90
19085;DHT22;9675;51.538;6.728;2024-03-07T05:11:53;6.10;99.90
19085;DHT22;9675;51.538;6.728;2024-03-07T05:14:20;6.10;99.90
19085;DHT22;9675;51.538;6.728;2024-03-07T05:16:48;6.10;99.90
19085;DHT22;9675;51.538;6.728;2024-03-07T05:19:30;6.10;99.90
19085;DHT22;9675;51.538;6.728;2024-03-07T05:21:58;6.10;99.90
19085;DHT22;9675;51.538;6.728;2024-03-07T05:24:25;6.10;99.90
19085;DHT22;9675;51.538;6.728;2024-03-07T05:26:54;6.10;99.90
19085;DHT22;9675;51.538;6.728;2024-03-07T05:29:22;6.10;99.90
19085;DHT22;9675;51.538;6.728;2024-03-07T05:31:49;6.00;99.90
19085;DHT22;9675;51.538;6.728;2024-03-07T05:34:17;6.00;99.90
19085;DHT22;9675;51.538;6.728;2024-03-07T05:36:45;5.90;99.90
19085;DHT22;9675;51.538;6.728;2024-03-07T05:39:13;5.90;99.90
19085;DHT22;9675;51.538;6.728;2024-03-07T05:41:42;5.90;99.90
19085;DHT22;9675;51.538;6.728;2024-03-07T05:44:12;5.90;99.90
19085;DHT22;9675;51.538;6.728;2024-03-07T05:46:39;5.90;99.90
19085;DHT22;9675;51.538;6.728;2024-03-07T05:49:11;5.90;99.90
19085;DHT22;9675;51.538;6.728;2024-03-07T05:51:38;5.90;99.90
19085;DHT22;9675;51.538;6.728;2024-03-07T05:54:07;5.90;99.90
19085;DHT22;9675;51.538;6.728;2024-03-07T05:56:35;5.90;99.90
19085;DHT22;9675;51.538;6.728;2024-03-07T05:59:02;5.80;99.90
19085;DHT22;9675;51.538;6.728;2024-03-07T06:01:34;5.80;99.90
19085;DHT22;9675;51.538;6.728;2024-03-07T06:04:01;5.80;99.90
19085;DHT22;9675;51.538;6.728;2024-03-07T06:06:31;5.80;99.90
19085;DHT22;9675;51.538;6.728;2024-03-07T06:09:01;5.70;99.90
19085;DHT22;9675;51.538;6.728;2024-03-07T06:11:33;5.70;99.90
19085;DHT22;9675;51.538;6.728;2024-03-07T06:14:01;5.80;99.90
19085;DHT22;9675;51.538;6.728;2024-03-07T06:16:29;5.80;99.90
19085;DHT22;9675;51.538;6.728;2024-03-07T06:18:59;5.70;99.90
19085;DHT22;9675;51.538;6.728;2024-03-07T06:21:27;5.80;99.90
19085;DHT22;9675;51.538;6.728;2024-03-07T06:23:55;5.70;99.90
19085;DHT22;9675;51.538;6.728;2024-03-07T06:26:25;5.70;99.90
19085;DHT22;9675;51.538;6.728;2024-03-07T06:29:03;5.70;99.90
19085;DHT22;9675;51.538;6.728;2024-03-07T06:31:31;5.70;99.90
19085;DHT22;9675;51.538;6.728;2024-03-07T06:34:00;5.70;99.90
19085;DHT22;9675;51.538;6.728;2024-03-07T06:36:27;5.60;99.90
19085;DHT22;9675;51.538;6.728;2024-03-07T06:38:54;5.60;99.90
19085;DHT22;9675;51.538;6.728;2024-03-07T06:41:21;5.60;99.90
19085;DHT22;9675;51.538;6.728;2024-03-07T06:43:48;5.60;99.90
19085;DHT22;9675;51.538;6.728;2024-03-07T06:46:16;5.60;99.90
19085;DHT22;9675;51.538;6.728;2024-03-07T06:48:45;5.60;99.90
19085;DHT22;9675;51.538;6.728;2024-03-07T06:51:14;5.50;99.90
19085;DHT22;9675;51.538;6.728;2024-03-07T06:53:43;5.50;99.90
19085;DHT22;9675;51.538;6.728;2024-03-07T06:56:11;5.50;99.90
19085;DHT22;9675;51.538;6.728;2024-03-07T06:58:38;5.50;99.90
19085;DHT22;9675;51.538;6.728;2024-03-07T07:01:05;5.60;99.90
19085;DHT22;9675;51.538;6.728;2024-03-07T07:03:36;5.60;99.90
19085;DHT22;9675;51.538;6.728;2024-03-07T07:06:03;5.50;99.90
19085;DHT22;9675;51.538;6.728;2024-03-07T07:08:33;5.50;99.90
19085;DHT22;9675;51.538;6.728;2024-03-07T07:11:00;5.50;99.90
19085;DHT22;9675;51.538;6.728;2024-03-07T07:13:29;5.50;99.90
19085;DHT22;9675;51.538;6.728;2024-03-07T07:15:56;5.50;99.90
19085;DHT22;9675;51.538;6.728;2024-03-07T07:18:24;5.50;99.90
19085;DHT22;9675;51.538;6.728;2024-03-07T07:20:51;5.60;99.90
19085;DHT22;9675;51.538;6.728;2024-03-07T07:23:18;5.50;99.90
19085;DHT22;9675;51.538;6.728;2024-03-07T07:25:48;5.50;99.90
19085;DHT22;9675;51.538;6.728;2024-03-07T07:28:15;5.60;99.90
19085;DHT22;9675;51.538;6.728;2024-03-07T07:30:42;5.60;99.90
19085;DHT22;9675;51.538;6.728;2024-03-07T07:33:09;5.50;99.90
19085;DHT22;9675;51.538;6.728;2024-03-07T07:35:36;5.50;99.90
19085;DHT22;9675;51.538;6.728;2024-03-07T07:38:04;5.50;99.90
19085;DHT22;9675;51.538;6.728;2024-03-07T07:40:32;5.50;99.90
19085;DHT22;9675;51.538;6.728;2024-03-07T07:43:03;5.50;99.90
19085;DHT22;9675;51.538;6.728;2024-03-07T07:45:30;5.50;99.90
19085;DHT22;9675;51.538;6.728;2024-03-07T07:47:58;5.50;99.90
19085;DHT22;9675;51.538;6.728;2024-03-07T07:50:24;5.50;99.90
19085;DHT22;9675;51.538;6.728;2024-03-07T07:52:53;5.50;99.90
19085;DHT22;9675;51.538;6.728;2024-03-07T07:55:22;5.50;99.90
19085;DHT22;9675;51.538;6.728;2024-03-07T07:57:52;5.60;99.90
19085;DHT22;9675;51.538;6.728;2024-03-07T08:00:22;5.60;99.90
19085;DHT22;9675;51.538;6.728;2024-03-07T08:02:51;5.60;99.90
19085;DHT22;9675;51.538;6.728;2024-03-07T08:05:20;5.60;99.90
19085;DHT22;9675;51.538;6.728;2024-03-07T08:07:48;5.60;99.90
19085;DHT22;9675;51.538;6.728;2024-03-07T08:10:17;5.60;99.90
19085;DHT22;9675;51.538;6.728;2024-03-07T08:12:44;5.60;99.90
19085;DHT22;9675;51.538;6.728;2024-03-07T08:15:12;5.60;99.90
19085;DHT22;9675;51.538;6.728;2024-03-07T08:17:45;5.60;99.90
19085;DHT22;9675;51.538;6.728;2024-03-07T08:20:14;5.60;99.90
19085;DHT22;9675;51.538;6.728;2024-03-07T08:22:44;5.70;99.90
19085;DHT22;9675;51.538;6.728;2024-03-07T08:25:12;5.70;99.90
19085;DHT22;9675;51.538;6.728;2024-03-07T08:27:42;5.80;99.90
19085;DHT22;9675;51.538;6.728;2024-03-07T08:30:12;5.80;99.90
19085;DHT22;9675;51.538;6.728;2024-03-07T08:32:40;5.80;99.90
19085;DHT22;9675;51.538;6.728;2024-03-07T08:35:09;5.90;99.90
19085;DHT22;9675;51.538;6.728;2024-03-07T08:37:38;5.90;99.90
19085;DHT22;9675;51.538;6.728;2024-03-07T08:40:07;6.00;99.90
19085;DHT22;9675;51.538;6.728;2024-03-07T08:42:37;6.00;99.90
19085;DHT22;9675;51.538;6.728;2024-03-07T08:45:05;6.00;99.90
19085;DHT22;9675;51.538;6.728;2024-03-07T08:47:37;6.10;99.90
19085;DHT22;9675;51.538;6.728;2024-03-07T08:50:05;6.10;99.90
19085;DHT22;9675;51.538;6.728;2024-03-07T08:52:35;6.20;99.90
19085;DHT22;9675;51.538;6.728;2024-03-07T08:55:04;6.30;99.90
19085;DHT22;9675;51.538;6.728;2024-03-07T08:57:35;6.30;99.90
19085;DHT22;9675;51.538;6.728;2024-03-07T09:00:03;6.40;99.90
19085;DHT22;9675;51.538;6.728;2024-03-07T09:02:33;6.50;99.90
19085;DHT22;9675;51.538;6.728;2024-03-07T09:05:01;6.50;99.90
19085;DHT22;9675;51.538;6.728;2024-03-07T09:07:28;6.60;99.90
19085;DHT22;9675;51.538;6.728;2024-03-07T09:09:57;6.70;99.90
19085;DHT22;9675;51.538;6.728;2024-03-07T09:12:24;6.80;99.90
19085;DHT22;9675;51.538;6.728;2024-03-07T09:14:51;6.80;99.90
19085;DHT22;9675;51.538;6.728;2024-03-07T09:19:46;7.00;99.90
19085;DHT22;9675;51.538;6.728;2024-03-07T09:22:13;7.00;99.90
19085;DHT22;9675;51.538;6.728;2024-03-07T09:24:40;7.10;99.90
19085;DHT22;9675;51.538;6.728;2024-03-07T09:27:09;7.20;99.90
19085;DHT22;9675;51.538;6.728;2024-03-07T09:29:36;7.30;99.90
19085;DHT22;9675;51.538;6.728;2024-03-07T09:32:03;7.30;99.90
19085;DHT22;9675;51.538;6.728;2024-03-07T09:34:33;7.40;99.90
19085;DHT22;9675;51.538;6.728;2024-03-07T09:37:01;7.50;99.90
19085;DHT22;9675;51.538;6.728;2024-03-07T09:39:28;7.50;99.90
19085;DHT22;9675;51.538;6.728;2024-03-07T09:41:57;7.60;99.90
19085;DHT22;9675;51.538;6.728;2024-03-07T09:44:28;7.60;99.90
19085;DHT22;9675;51.538;6.728;2024-03-07T09:46:56;7.70;99.90
19085;DHT22;9675;51.538;6.728;2024-03-07T09:49:24;7.70;99.90
19085;DHT22;9675;51.538;6.728;2024-03-07T09:51:55;7.80;99.90
19085;DHT22;9675;51.538;6.728;2024-03-07T09:54:26;7.80;99.90
19085;DHT22;9675;51.538;6.728;2024-03-07T09:56:53;7.80;99.90
19085;DHT22;9675;51.538;6.728;2024-03-07T09:59:25;7.90;99.90
19085;DHT22;9675;51.538;6.728;2024-03-07T10:01:55;7.90;99.90
19085;DHT22;9675;51.538;6.728;2024-03-07T10:04:32;8.00;99.90
19085;DHT22;9675;51.538;6.728;2024-03-07T10:07:06;8.00;99.90
19085;DHT22;9675;51.538;6.728;2024-03-07T10:09:45;8.00;99.90
19085;DHT22;9675;51.538;6.728;2024-03-07T10:12:14;8.10;99.90
19085;DHT22;9675;51.538;6.728;2024-03-07T10:14:48;8.10;99.90
19085;DHT22;9675;51.538;6.728;2024-03-07T10:17:16;8.10;99.90
19085;DHT22;9675;51.538;6.728;2024-03-07T10:19:46;8.10;99.90
19085;DHT22;9675;51.538;6.728;2024-03-07T10:22:14;8.10;99.90
19085;DHT22;9675;51.538;6.728;2024-03-07T10:24:50;8.20;99.90
19085;DHT22;9675;51.538;6.728;2024-03-07T10:27:18;8.20;99.90
19085;DHT22;9675;51.538;6.728;2024-03-07T10:29:47;8.30;99.90
19085;DHT22;9675;51.538;6.728;2024-03-07T10:32:19;8.30;99.90
19085;DHT22;9675;51.538;6.728;2024-03-07T10:34:46;8.30;99.90
19085;DHT22;9675;51.538;6.728;2024-03-07T10:37:14;8.40;99.90
19085;DHT22;9675;51.538;6.728;2024-03-07T10:39:43;8.40;99.90
19085;DHT22;9675;51.538;6.728;2024-03-07T10:42:14;8.50;99.90
19085;DHT22;9675;51.538;6.728;2024-03-07T10:44:43;8.60;99.90
19085;DHT22;9675;51.538;6.728;2024-03-07T10:47:16;8.60;99.90
19085;DHT22;9675;51.538;6.728;2024-03-07T10:49:53;8.60;99.90
19085;DHT22;9675;51.538;6.728;2024-03-07T10:52:40;8.70;99.90
19085;DHT22;9675;51.538;6.728;2024-03-07T10:55:22;8.80;99.90
19085;DHT22;9675;51.538;6.728;2024-03-07T10:58:02;9.00;99.90
19085;DHT22;9675;51.538;6.728;2024-03-07T11:00:39;9.10;99.90
19085;DHT22;9675;51.538;6.728;2024-03-07T11:03:11;9.20;99.90
19085;DHT22;9675;51.538;6.728;2024-03-07T11:05:40;9.20;99.90
19085;DHT22;9675;51.538;6.728;2024-03-07T11:08:10;9.30;99.90
19085;DHT22;9675;51.538;6.728;2024-03-07T11:10:38;9.40;99.90
19085;DHT22;9675;51.538;6.728;2024-03-07T11:13:09;9.40;99.90
19085;DHT22;9675;51.538;6.728;2024-03-07T11:15:40;9.50;99.90
19085;DHT22;9675;51.538;6.728;2024-03-07T11:18:13;9.60;99.90
19085;DHT22;9675;51.538;6.728;2024-03-07T11:20:41;9.70;99.90
19085;DHT22;9675;51.538;6.728;2024-03-07T11:23:25;9.80;99.90
19085;DHT22;9675;51.538;6.728;2024-03-07T11:26:02;9.80;99.90
19085;DHT22;9675;51.538;6.728;2024-03-07T11:28:35;9.90;99.90
19085;DHT22;9675;51.538;6.728;2024-03-07T11:31:12;10.00;99.90
19085;DHT22;9675;51.538;6.728;2024-03-07T11:33:40;10.00;99.90
19085;DHT22;9675;51.538;6.728;2024-03-07T11:36:08;10.10;99.90
19085;DHT22;9675;51.538;6.728;2024-03-07T11:38:37;10.20;99.90
19085;DHT22;9675;51.538;6.728;2024-03-07T11:41:04;10.30;99.90
19085;DHT22;9675;51.538;6.728;2024-03-07T11:43:40;10.40;99.90
19085;DHT22;9675;51.538;6.728;2024-03-07T11:46:08;10.40;99.90
19085;DHT22;9675;51.538;6.728;2024-03-07T11:48:39;10.50;99.90
19085;DHT22;9675;51.538;6.728;2024-03-07T11:51:08;10.60;99.90
19085;DHT22;9675;51.538;6.728;2024-03-07T11:53:39;10.60;99.90
19085;DHT22;9675;51.538;6.728;2024-03-07T11:56:06;10.70;99.90
19085;DHT22;9675;51.538;6.728;2024-03-07T11:58:38;10.80;99.90
19085;DHT22;9675;51.538;6.728;2024-03-07T12:01:07;11.00;99.90
19085;DHT22;9675;51.538;6.728;2024-03-07T12:03:36;11.10;99.90
19085;DHT22;9675;51.538;6.728;2024-03-07T12:06:04;11.20;99.90
19085;DHT22;9675;51.538;6.728;2024-03-07T12:08:32;11.30;99.90
19085;DHT22;9675;51.538;6.728;2024-03-07T12:10:59;11.30;99.90
19085;DHT22;9675;51.538;6.728;2024-03-07T12:13:28;11.40;99.90
19085;DHT22;9675;51.538;6.728;2024-03-07T12:15:57;11.60;99.90
19085;DHT22;9675;51.538;6.728;2024-03-07T12:18:24;11.70;99.90
19085;DHT22;9675;51.538;6.728;2024-03-07T12:20:52;11.80;99.90
19085;DHT22;9675;51.538;6.728;2024-03-07T12:23:22;11.80;99.90
19085;DHT22;9675;51.538;6.728;2024-03-07T12:25:59;11.90;99.90
19085;DHT22;9675;51.538;6.728;2024-03-07T12:28:28;11.90;99.90
19085;DHT22;9675;51.538;6.728;2024-03-07T12:31:00;12.00;99.90
19085;DHT22;9675;51.538;6.728;2024-03-07T12:33:29;12.10;99.90
19085;DHT22;9675;51.538;6.728;2024-03-07T12:36:02;12.20;99.90
19085;DHT22;9675;51.538;6.728;2024-03-07T12:38:32;12.30;99.90
19085;DHT22;9675;51.538;6.728;2024-03-07T12:41:02;12.40;99.90
19085;DHT22;9675;51.538;6.728;2024-03-07T12:43:33;12.50;99.90
19085;DHT22;9675;51.538;6.728;2024-03-07T12:46:02;12.50;99.90
19085;DHT22;9675;51.538;6.728;2024-03-07T12:48:32;12.60;99.90
19085;DHT22;9675;51.538;6.728;2024-03-07T12:50:59;12.60;99.90
19085;DHT22;9675;51.538;6.728;2024-03-07T12:53:26;12.60;99.90
19085;DHT22;9675;51.538;6.728;2024-03-07T12:55:54;12.70;99.90
19085;DHT22;9675;51.538;6.728;2024-03-07T12:58:22;12.80;99.90
19085;DHT22;9675;51.538;6.728;2024-03-07T13:00:51;12.80;99.90
19085;DHT22;9675;51.538;6.728;2024-03-07T13:03:22;12.90;99.90
19085;DHT22;9675;51.538;6.728;2024-03-07T13:05:54;13.00;99.90
19085;DHT22;9675;51.538;6.728;2024-03-07T13:08:21;13.20;99.90
19085;DHT22;9675;51.538;6.728;2024-03-07T13:10:52;13.20;99.90
19085;DHT22;9675;51.538;6.728;2024-03-07T13:13:21;13.30;99.90
19085;DHT22;9675;51.538;6.728;2024-03-07T13:15:48;13.30;99.90
19085;DHT22;9675;51.538;6.728;2024-03-07T13:18:16;13.30;99.90
19085;DHT22;9675;51.538;6.728;2024-03-07T13:20:45;13.30;99.90
19085;DHT22;9675;51.538;6.728;2024-03-07T13:23:13;13.40;99.90
19085;DHT22;9675;51.538;6.728;2024-03-07T13:25:41;13.50;99.90
19085;DHT22;9675;51.538;6.728;2024-03-07T13:28:11;13.60;99.90
19085;DHT22;9675;51.538;6.728;2024-03-07T13:30:43;13.60;99.90
19085;DHT22;9675;51.538;6.728;2024-03-07T13:33:14;13.70;99.90
19085;DHT22;9675;51.538;6.728;2024-03-07T13:35:41;13.70;99.90
19085;DHT22;9675;51.538;6.728;2024-03-07T13:38:10;13.80;99.90
19085;DHT22;9675;51.538;6.728;2024-03-07T13:40:39;13.80;99.90
19085;DHT22;9675;51.538;6.728;2024-03-07T13:43:07;13.80;99.90
19085;DHT22;9675;51.538;6.728;2024-03-07T13:45:35;13.80;99.90
19085;DHT22;9675;51.538;6.728;2024-03-07T13:48:05;13.80;99.90
19085;DHT22;9675;51.538;6.728;2024-03-07T13:50:34;13.90;99.90
19085;DHT22;9675;51.538;6.728;2024-03-07T13:53:03;13.90;99.90
19085;DHT22;9675;51.538;6.728;2024-03-07T13:55:48;13.90;99.90
19085;DHT22;9675;51.538;6.728;2024-03-07T13:58:34;13.90;99.90
19085;DHT22;9675;51.538;6.728;2024-03-07T14:01:23;13.90;99.90
19085;DHT22;9675;51.538;6.728;2024-03-07T14:07:50;14.00;99.90
19085;DHT22;9675;51.538;6.728;2024-03-07T14:10:58;14.00;99.90
19085;DHT22;9675;51.538;6.728;2024-03-07T14:13:53;13.90;99.90
19085;DHT22;9675;51.538;6.728;2024-03-07T14:16:52;13.90;99.90
19085;DHT22;9675;51.538;6.728;2024-03-07T14:20:06;13.90;99.90
19085;DHT22;9675;51.538;6.728;2024-03-07T14:23:14;13.90;99.90
19085;DHT22;9675;51.538;6.728;2024-03-07T14:26:33;13.90;99.90
19085;DHT22;9675;51.538;6.728;2024-03-07T14:29:22;13.90;99.90
19085;DHT22;9675;51.538;6.728;2024-03-07T14:31:57;13.90;99.90
19085;DHT22;9675;51.538;6.728;2024-03-07T14:34:54;13.90;99.90
19085;DHT22;9675;51.538;6.728;2024-03-07T14:37:31;13.90;99.90
19085;DHT22;9675;51.538;6.728;2024-03-07T14:40:09;13.80;99.90
19085;DHT22;9675;51.538;6.728;2024-03-07T14:42:43;13.80;99.90
19085;DHT22;9675;51.538;6.728;2024-03-07T14:45:17;13.80;99.90
19085;DHT22;9675;51.538;6.728;2024-03-07T14:47:49;13.80;99.90
19085;DHT22;9675;51.538;6.728;2024-03-07T14:50:18;13.80;99.90
19085;DHT22;9675;51.538;6.728;2024-03-07T14:52:46;13.80;99.90
19085;DHT22;9675;51.538;6.728;2024-03-07T14:55:13;13.70;99.90
19085;DHT22;9675;51.538;6.728;2024-03-07T14:57:46;13.70;99.90
19085;DHT22;9675;51.538;6.728;2024-03-07T15:00:13;13.70;99.90
19085;DHT22;9675;51.538;6.728;2024-03-07T15:02:46;13.70;99.90
19085;DHT22;9675;51.538;6.728;2024-03-07T15:05:14;13.70;99.90
19085;DHT22;9675;51.538;6.728;2024-03-07T15:07:42;13.70;99.90
19085;DHT22;9675;51.538;6.728;2024-03-07T15:10:16;13.70;99.90
19085;DHT22;9675;51.538;6.728;2024-03-07T15:12:47;13.60;99.90
19085;DHT22;9675;51.538;6.728;2024-03-07T15:15:15;13.60;99.90
19085;DHT22;9675;51.538;6.728;2024-03-07T15:17:44;13.60;99.90
19085;DHT22;9675;51.538;6.728;2024-03-07T15:20:12;13.60;99.90
19085;DHT22;9675;51.538;6.728;2024-03-07T15:22:48;13.60;99.90
19085;DHT22;9675;51.538;6.728;2024-03-07T15:25:17;13.60;99.90
19085;DHT22;9675;51.538;6.728;2024-03-07T15:27:44;13.60;99.90
19085;DHT22;9675;51.538;6.728;2024-03-07T15:30:16;13.60;99.90
19085;DHT22;9675;51.538;6.728;2024-03-07T15:32:45;13.50;99.90
19085;DHT22;9675;51.538;6.728;2024-03-07T15:35:15;13.60;99.90
19085;DHT22;9675;51.538;6.728;2024-03-07T15:37:44;13.50;99.90
19085;DHT22;9675;51.538;6.728;2024-03-07T15:40:13;13.50;99.90
19085;DHT22;9675;51.538;6.728;2024-03-07T15:42:41;13.50;99.90
19085;DHT22;9675;51.538;6.728;2024-03-07T15:45:13;13.50;99.90
19085;DHT22;9675;51.538;6.728;2024-03-07T15:47:48;13.50;99.90
19085;DHT22;9675;51.538;6.728;2024-03-07T15:50:16;13.40;99.90
19085;DHT22;9675;51.538;6.728;2024-03-07T15:52:45;13.40;99.90
19085;DHT22;9675;51.538;6.728;2024-03-07T15:55:13;13.40;99.90
19085;DHT22;9675;51.538;6.728;2024-03-07T15:57:45;13.40;99.90
19085;DHT22;9675;51.538;6.728;2024-03-07T16:00:16;13.40;99.90
19085;DHT22;9675;51.538;6.728;2024-03-07T16:02:56;13.40;99.90
19085;DHT22;9675;51.538;6.728;2024-03-07T16:05:25;13.30;99.90
19085;DHT22;9675;51.538;6.728;2024-03-07T16:07:54;13.30;99.90
19085;DHT22;9675;51.538;6.728;2024-03-07T16:10:23;13.30;99.90
19085;DHT22;9675;51.538;6.728;2024-03-07T16:12:52;13.30;99.90
19085;DHT22;9675;51.538;6.728;2024-03-07T16:15:20;13.30;99.90
19085;DHT22;9675;51.538;6.728;2024-03-07T16:17:48;13.20;99.90
19085;DHT22;9675;51.538;6.728;2024-03-07T16:20:17;13.20;99.90